sensor_id;sensor_type;location;lat;lon;timestamp;P1;durP1;ratioP1;P2;durP2;ratioP2
66946;SDS011;53853;51.982;5.928;2023-04-03T00:02:26;3.72;;;1.88;;
66946;SDS011;53853;51.982;5.928;2023-04-03T00:04:56;4.65;;;1.95;;
66946;SDS011;53853;51.982;5.928;2023-04-03T00:07:26;3.95;;;2.05;;
66946;SDS011;53853;51.982;5.928;2023-04-03T00:09:56;2.92;;;1.58;;
66946;SDS011;53853;51.982;5.928;2023-04-03T00:12:26;3.47;;;1.83;;
66946;SDS011;53853;51.982;5.928;2023-04-03T00:14:58;5.55;;;2.63;;
66946;SDS011;53853;51.982;5.928;2023-04-03T00:17:28;4.43;;;1.98;;
66946;SDS011;53853;51.982;5.928;2023-04-03T00:19:58;3.83;;;2.03;;
66946;SDS011;53853;51.982;5.928;2023-04-03T00:22:28;5.07;;;2.00;;
66946;SDS011;53853;51.982;5.928;2023-04-03T00:24:58;4.20;;;1.75;;
66946;SDS011;53853;51.982;5.928;2023-04-03T00:27:28;4.05;;;2.00;;
66946;SDS011;53853;51.982;5.928;2023-04-03T00:30:00;3.65;;;2.10;;
66946;SDS011;53853;51.982;5.928;2023-04-03T00:32:31;4.20;;;2.50;;
66946;SDS011;53853;51.982;5.928;2023-04-03T00:35:01;3.88;;;2.20;;
66946;SDS011;53853;51.982;5.928;2023-04-03T00:37:32;3.72;;;1.75;;
66946;SDS011;53853;51.982;5.928;2023-04-03T00:40:02;4.68;;;2.25;;
66946;SDS011;53853;51.982;5.928;2023-04-03T00:42:34;3.33;;;2.42;;
66946;SDS011;53853;51.982;5.928;2023-04-03T00:48:10;3.40;;;2.08;;
66946;SDS011;53853;51.982;5.928;2023-04-03T00:50:44;3.55;;;2.42;;
66946;SDS011;53853;51.982;5.928;2023-04-03T00:53:16;5.55;;;2.20;;
66946;SDS011;53853;51.982;5.928;2023-04-03T00:55:48;4.22;;;2.30;;
66946;SDS011;53853;51.982;5.928;2023-04-03T00:58:19;4.63;;;2.38;;
66946;SDS011;53853;51.982;5.928;2023-04-03T01:00:57;3.70;;;2.10;;
66946;SDS011;53853;51.982;5.928;2023-04-03T01:03:30;5.93;;;2.42;;
66946;SDS011;53853;51.982;5.928;2023-04-03T01:06:02;3.45;;;2.28;;
66946;SDS011;53853;51.982;5.928;2023-04-03T01:08:33;3.33;;;2.10;;
66946;SDS011;53853;51.982;5.928;2023-04-03T01:11:04;5.15;;;2.40;;
66946;SDS011;53853;51.982;5.928;2023-04-03T01:13:34;3.42;;;2.00;;
66946;SDS011;53853;51.982;5.928;2023-04-03T01:16:08;4.10;;;1.90;;
66946;SDS011;53853;51.982;5.928;2023-04-03T01:18:39;4.63;;;2.13;;
66946;SDS011;53853;51.982;5.928;2023-04-03T01:24:32;5.38;;;1.98;;
66946;SDS011;53853;51.982;5.928;2023-04-03T01:27:07;4.78;;;2.47;;
66946;SDS011;53853;51.982;5.928;2023-04-03T01:29:39;3.60;;;1.80;;
66946;SDS011;53853;51.982;5.928;2023-04-03T01:32:13;3.58;;;1.73;;
66946;SDS011;53853;51.982;5.928;2023-04-03T01:34:43;5.55;;;2.20;;
66946;SDS011;53853;51.982;5.928;2023-04-03T01:37:13;5.40;;;1.95;;
66946;SDS011;53853;51.982;5.928;2023-04-03T01:39:43;2.65;;;1.67;;
66946;SDS011;53853;51.982;5.928;2023-04-03T01:42:13;3.00;;;1.85;;
66946;SDS011;53853;51.982;5.928;2023-04-03T01:44:44;3.83;;;1.48;;
66946;SDS011;53853;51.982;5.928;2023-04-03T01:47:16;5.25;;;1.95;;
66946;SDS011;53853;51.982;5.928;2023-04-03T01:49:46;4.70;;;1.80;;
66946;SDS011;53853;51.982;5.928;2023-04-03T01:52:16;4.93;;;2.00;;
66946;SDS011;53853;51.982;5.928;2023-04-03T01:54:46;2.70;;;1.77;;
66946;SDS011;53853;51.982;5.928;2023-04-03T01:57:16;5.88;;;1.98;;
66946;SDS011;53853;51.982;5.928;2023-04-03T01:59:46;5.30;;;2.25;;
66946;SDS011;53853;51.982;5.928;2023-04-03T02:02:19;4.50;;;2.10;;
66946;SDS011;53853;51.982;5.928;2023-04-03T02:04:51;4.55;;;1.77;;
66946;SDS011;53853;51.982;5.928;2023-04-03T02:07:21;3.83;;;1.70;;
66946;SDS011;53853;51.982;5.928;2023-04-03T02:09:51;4.05;;;2.17;;
66946;SDS011;53853;51.982;5.928;2023-04-03T02:12:21;2.88;;;1.70;;
66946;SDS011;53853;51.982;5.928;2023-04-03T02:14:51;6.15;;;2.00;;
66946;SDS011;53853;51.982;5.928;2023-04-03T02:17:24;3.63;;;2.13;;
66946;SDS011;53853;51.982;5.928;2023-04-03T02:19:54;3.22;;;1.63;;
66946;SDS011;53853;51.982;5.928;2023-04-03T02:22:24;3.90;;;2.17;;
66946;SDS011;53853;51.982;5.928;2023-04-03T02:24:54;3.58;;;1.92;;
66946;SDS011;53853;51.982;5.928;2023-04-03T02:27:24;4.13;;;2.08;;
66946;SDS011;53853;51.982;5.928;2023-04-03T02:29:55;4.65;;;2.30;;
66946;SDS011;53853;51.982;5.928;2023-04-03T02:32:27;6.32;;;2.67;;
66946;SDS011;53853;51.982;5.928;2023-04-03T02:34:58;3.80;;;1.77;;
66946;SDS011;53853;51.982;5.928;2023-04-03T02:37:28;3.30;;;2.08;;
66946;SDS011;53853;51.982;5.928;2023-04-03T02:39:58;3.95;;;1.75;;
66946;SDS011;53853;51.982;5.928;2023-04-03T02:42:28;6.25;;;2.20;;
66946;SDS011;53853;51.982;5.928;2023-04-03T02:44:58;4.38;;;2.10;;
66946;SDS011;53853;51.982;5.928;2023-04-03T02:47:31;5.25;;;2.50;;
66946;SDS011;53853;51.982;5.928;2023-04-03T02:50:01;6.05;;;2.20;;
66946;SDS011;53853;51.982;5.928;2023-04-03T02:52:32;5.18;;;2.47;;
66946;SDS011;53853;51.982;5.928;2023-04-03T02:55:02;4.57;;;1.63;;
66946;SDS011;53853;51.982;5.928;2023-04-03T02:57:33;5.63;;;2.42;;
66946;SDS011;53853;51.982;5.928;2023-04-03T03:00:03;4.22;;;1.88;;
66946;SDS011;53853;51.982;5.928;2023-04-03T03:02:38;4.32;;;2.17;;
66946;SDS011;53853;51.982;5.928;2023-04-03T03:05:08;4.65;;;2.00;;
66946;SDS011;53853;51.982;5.928;2023-04-03T03:07:38;8.07;;;2.25;;
66946;SDS011;53853;51.982;5.928;2023-04-03T03:10:09;8.18;;;2.50;;
66946;SDS011;53853;51.982;5.928;2023-04-03T03:12:38;5.10;;;2.33;;
66946;SDS011;53853;51.982;5.928;2023-04-03T03:15:09;3.75;;;1.92;;
66946;SDS011;53853;51.982;5.928;2023-04-03T03:17:42;6.53;;;2.20;;
66946;SDS011;53853;51.982;5.928;2023-04-03T03:20:12;4.80;;;2.30;;
66946;SDS011;53853;51.982;5.928;2023-04-03T03:22:43;4.60;;;2.40;;
66946;SDS011;53853;51.982;5.928;2023-04-03T03:25:13;3.95;;;2.55;;
66946;SDS011;53853;51.982;5.928;2023-04-03T03:27:43;6.95;;;2.33;;
66946;SDS011;53853;51.982;5.928;2023-04-03T03:30:13;7.75;;;2.90;;
66946;SDS011;53853;51.982;5.928;2023-04-03T03:32:45;6.45;;;2.63;;
66946;SDS011;53853;51.982;5.928;2023-04-03T03:35:15;6.00;;;2.25;;
66946;SDS011;53853;51.982;5.928;2023-04-03T03:37:47;4.30;;;2.25;;
66946;SDS011;53853;51.982;5.928;2023-04-03T03:40:17;4.65;;;2.05;;
66946;SDS011;53853;51.982;5.928;2023-04-03T03:42:47;4.32;;;2.17;;
66946;SDS011;53853;51.982;5.928;2023-04-03T03:45:16;6.53;;;2.60;;
66946;SDS011;53853;51.982;5.928;2023-04-03T03:47:49;4.88;;;2.42;;
66946;SDS011;53853;51.982;5.928;2023-04-03T03:50:19;6.15;;;2.53;;
66946;SDS011;53853;51.982;5.928;2023-04-03T03:52:50;4.93;;;2.30;;
66946;SDS011;53853;51.982;5.928;2023-04-03T03:55:20;5.32;;;1.80;;
66946;SDS011;53853;51.982;5.928;2023-04-03T03:57:53;4.15;;;1.77;;
66946;SDS011;53853;51.982;5.928;2023-04-03T04:00:23;4.78;;;2.17;;
66946;SDS011;53853;51.982;5.928;2023-04-03T04:02:58;5.60;;;2.10;;
66946;SDS011;53853;51.982;5.928;2023-04-03T04:05:30;5.00;;;2.00;;
66946;SDS011;53853;51.982;5.928;2023-04-03T04:08:00;4.88;;;2.05;;
66946;SDS011;53853;51.982;5.928;2023-04-03T04:10:30;3.85;;;1.90;;
66946;SDS011;53853;51.982;5.928;2023-04-03T04:13:00;7.28;;;2.25;;
66946;SDS011;53853;51.982;5.928;2023-04-03T04:15:31;5.18;;;2.25;;
66946;SDS011;53853;51.982;5.928;2023-04-03T04:18:03;3.70;;;1.83;;
66946;SDS011;53853;51.982;5.928;2023-04-03T04:20:33;4.55;;;2.70;;
66946;SDS011;53853;51.982;5.928;2023-04-03T04:23:03;3.28;;;2.30;;
66946;SDS011;53853;51.982;5.928;2023-04-03T04:25:34;3.97;;;2.15;;
66946;SDS011;53853;51.982;5.928;2023-04-03T04:28:05;6.15;;;3.17;;
66946;SDS011;53853;51.982;5.928;2023-04-03T04:30:35;3.40;;;2.33;;
66946;SDS011;53853;51.982;5.928;2023-04-03T04:33:08;5.45;;;2.28;;
66946;SDS011;53853;51.982;5.928;2023-04-03T04:35:41;6.25;;;3.17;;
66946;SDS011;53853;51.982;5.928;2023-04-03T04:38:12;5.68;;;2.45;;
66946;SDS011;53853;51.982;5.928;2023-04-03T04:40:42;6.88;;;2.30;;
66946;SDS011;53853;51.982;5.928;2023-04-03T04:43:12;7.40;;;3.05;;
66946;SDS011;53853;51.982;5.928;2023-04-03T04:45:44;3.45;;;2.05;;
66946;SDS011;53853;51.982;5.928;2023-04-03T04:48:20;6.00;;;2.20;;
66946;SDS011;53853;51.982;5.928;2023-04-03T04:50:50;4.97;;;2.28;;
66946;SDS011;53853;51.982;5.928;2023-04-03T04:53:21;4.28;;;2.17;;
66946;SDS011;53853;51.982;5.928;2023-04-03T04:55:51;5.45;;;2.78;;
66946;SDS011;53853;51.982;5.928;2023-04-03T04:58:22;5.20;;;2.05;;
66946;SDS011;53853;51.982;5.928;2023-04-03T05:00:57;7.18;;;2.58;;
66946;SDS011;53853;51.982;5.928;2023-04-03T05:03:32;4.88;;;3.00;;
66946;SDS011;53853;51.982;5.928;2023-04-03T05:06:02;4.55;;;2.38;;
66946;SDS011;53853;51.982;5.928;2023-04-03T05:08:34;7.05;;;3.13;;
66946;SDS011;53853;51.982;5.928;2023-04-03T05:11:04;5.88;;;2.45;;
66946;SDS011;53853;51.982;5.928;2023-04-03T05:13:34;4.82;;;2.28;;
66946;SDS011;53853;51.982;5.928;2023-04-03T05:16:05;6.65;;;2.63;;
66946;SDS011;53853;51.982;5.928;2023-04-03T05:18:38;4.40;;;2.10;;
66946;SDS011;53853;51.982;5.928;2023-04-03T05:21:14;4.93;;;2.10;;
66946;SDS011;53853;51.982;5.928;2023-04-03T05:23:46;4.72;;;2.05;;
66946;SDS011;53853;51.982;5.928;2023-04-03T05:26:16;6.65;;;2.97;;
66946;SDS011;53853;51.982;5.928;2023-04-03T05:28:48;5.18;;;2.28;;
66946;SDS011;53853;51.982;5.928;2023-04-03T05:31:19;7.10;;;2.88;;
66946;SDS011;53853;51.982;5.928;2023-04-03T05:33:52;5.53;;;2.33;;
66946;SDS011;53853;51.982;5.928;2023-04-03T05:36:22;6.68;;;3.40;;
66946;SDS011;53853;51.982;5.928;2023-04-03T05:38:56;7.72;;;2.65;;
66946;SDS011;53853;51.982;5.928;2023-04-03T05:41:26;5.65;;;2.90;;
66946;SDS011;53853;51.982;5.928;2023-04-03T05:43:56;8.45;;;2.47;;
66946;SDS011;53853;51.982;5.928;2023-04-03T05:46:26;7.45;;;2.40;;
66946;SDS011;53853;51.982;5.928;2023-04-03T05:49:01;8.05;;;2.53;;
66946;SDS011;53853;51.982;5.928;2023-04-03T05:51:35;7.82;;;2.50;;
66946;SDS011;53853;51.982;5.928;2023-04-03T05:54:18;6.40;;;2.17;;
66946;SDS011;53853;51.982;5.928;2023-04-03T05:56:54;5.68;;;2.40;;
66946;SDS011;53853;51.982;5.928;2023-04-03T05:59:25;7.57;;;3.10;;
66946;SDS011;53853;51.982;5.928;2023-04-03T06:01:57;3.83;;;2.28;;
66946;SDS011;53853;51.982;5.928;2023-04-03T06:04:31;5.40;;;2.25;;
66946;SDS011;53853;51.982;5.928;2023-04-03T06:07:01;3.17;;;1.80;;
66946;SDS011;53853;51.982;5.928;2023-04-03T06:09:31;8.68;;;2.78;;
66946;SDS011;53853;51.982;5.928;2023-04-03T06:12:02;5.15;;;2.42;;
66946;SDS011;53853;51.982;5.928;2023-04-03T06:14:32;6.05;;;2.05;;
66946;SDS011;53853;51.982;5.928;2023-04-03T06:17:02;4.60;;;2.17;;
66946;SDS011;53853;51.982;5.928;2023-04-03T06:19:35;5.95;;;3.00;;
66946;SDS011;53853;51.982;5.928;2023-04-03T06:22:07;5.60;;;2.70;;
66946;SDS011;53853;51.982;5.928;2023-04-03T06:24:37;5.75;;;2.97;;
66946;SDS011;53853;51.982;5.928;2023-04-03T06:27:07;6.32;;;2.47;;
66946;SDS011;53853;51.982;5.928;2023-04-03T06:29:39;5.88;;;1.98;;
66946;SDS011;53853;51.982;5.928;2023-04-03T06:32:10;7.63;;;2.88;;
66946;SDS011;53853;51.982;5.928;2023-04-03T06:34:43;7.13;;;2.83;;
66946;SDS011;53853;51.982;5.928;2023-04-03T06:37:14;4.72;;;2.40;;
66946;SDS011;53853;51.982;5.928;2023-04-03T06:39:45;4.43;;;2.53;;
66946;SDS011;53853;51.982;5.928;2023-04-03T06:42:15;7.18;;;2.92;;
66946;SDS011;53853;51.982;5.928;2023-04-03T06:44:53;4.88;;;2.40;;
66946;SDS011;53853;51.982;5.928;2023-04-03T06:47:23;5.90;;;2.35;;
66946;SDS011;53853;51.982;5.928;2023-04-03T06:49:55;6.57;;;2.85;;
66946;SDS011;53853;51.982;5.928;2023-04-03T06:52:25;5.13;;;2.70;;
66946;SDS011;53853;51.982;5.928;2023-04-03T06:54:55;5.07;;;2.28;;
66946;SDS011;53853;51.982;5.928;2023-04-03T06:57:26;7.95;;;2.88;;
66946;SDS011;53853;51.982;5.928;2023-04-03T06:59:56;6.95;;;3.05;;
66946;SDS011;53853;51.982;5.928;2023-04-03T07:02:25;7.65;;;3.33;;
66946;SDS011;53853;51.982;5.928;2023-04-03T07:04:58;4.57;;;2.35;;
66946;SDS011;53853;51.982;5.928;2023-04-03T07:07:28;5.13;;;2.50;;
66946;SDS011;53853;51.982;5.928;2023-04-03T07:09:59;7.78;;;2.50;;
66946;SDS011;53853;51.982;5.928;2023-04-03T07:12:29;4.22;;;2.28;;
66946;SDS011;53853;51.982;5.928;2023-04-03T07:14:59;5.95;;;2.35;;
66946;SDS011;53853;51.982;5.928;2023-04-03T07:17:29;5.13;;;2.10;;
66946;SDS011;53853;51.982;5.928;2023-04-03T07:20:01;4.47;;;2.13;;
66946;SDS011;53853;51.982;5.928;2023-04-03T07:22:33;9.20;;;3.08;;
66946;SDS011;53853;51.982;5.928;2023-04-03T07:25:03;10.25;;;3.10;;
66946;SDS011;53853;51.982;5.928;2023-04-03T07:27:34;6.85;;;3.05;;
66946;SDS011;53853;51.982;5.928;2023-04-03T07:30:04;7.88;;;2.40;;
66946;SDS011;53853;51.982;5.928;2023-04-03T07:32:35;5.55;;;2.60;;
66946;SDS011;53853;51.982;5.928;2023-04-03T07:35:08;6.72;;;2.63;;
66946;SDS011;53853;51.982;5.928;2023-04-03T07:37:38;5.75;;;2.60;;
66946;SDS011;53853;51.982;5.928;2023-04-03T07:40:08;4.80;;;2.67;;
66946;SDS011;53853;51.982;5.928;2023-04-03T07:42:40;5.35;;;2.78;;
66946;SDS011;53853;51.982;5.928;2023-04-03T07:45:10;8.43;;;2.97;;
66946;SDS011;53853;51.982;5.928;2023-04-03T07:47:40;4.75;;;2.65;;
66946;SDS011;53853;51.982;5.928;2023-04-03T07:50:13;4.50;;;2.05;;
66946;SDS011;53853;51.982;5.928;2023-04-03T07:52:43;7.32;;;2.72;;
66946;SDS011;53853;51.982;5.928;2023-04-03T07:55:14;4.55;;;2.60;;
66946;SDS011;53853;51.982;5.928;2023-04-03T07:57:44;3.85;;;2.28;;
66946;SDS011;53853;51.982;5.928;2023-04-03T08:00:14;7.70;;;2.65;;
66946;SDS011;53853;51.982;5.928;2023-04-03T08:02:45;4.68;;;2.03;;
66946;SDS011;53853;51.982;5.928;2023-04-03T08:05:20;4.32;;;1.75;;
66946;SDS011;53853;51.982;5.928;2023-04-03T08:07:51;8.60;;;2.50;;
66946;SDS011;53853;51.982;5.928;2023-04-03T08:10:20;4.90;;;2.15;;
66946;SDS011;53853;51.982;5.928;2023-04-03T08:12:50;4.10;;;1.88;;
66946;SDS011;53853;51.982;5.928;2023-04-03T08:15:20;3.47;;;2.00;;
66946;SDS011;53853;51.982;5.928;2023-04-03T08:17:50;4.07;;;1.75;;
66946;SDS011;53853;51.982;5.928;2023-04-03T08:20:23;7.18;;;2.20;;
66946;SDS011;53853;51.982;5.928;2023-04-03T08:22:53;6.40;;;2.15;;
66946;SDS011;53853;51.982;5.928;2023-04-03T08:25:23;3.90;;;1.98;;
66946;SDS011;53853;51.982;5.928;2023-04-03T08:27:55;4.53;;;2.10;;
66946;SDS011;53853;51.982;5.928;2023-04-03T08:30:25;4.00;;;1.95;;
66946;SDS011;53853;51.982;5.928;2023-04-03T08:32:55;6.22;;;2.33;;
66946;SDS011;53853;51.982;5.928;2023-04-03T08:35:27;3.85;;;2.55;;
66946;SDS011;53853;51.982;5.928;2023-04-03T08:37:57;3.10;;;1.70;;
66946;SDS011;53853;51.982;5.928;2023-04-03T08:40:27;4.95;;;2.40;;
66946;SDS011;53853;51.982;5.928;2023-04-03T08:43:01;5.63;;;1.85;;
66946;SDS011;53853;51.982;5.928;2023-04-03T08:45:48;4.82;;;2.05;;
66946;SDS011;53853;51.982;5.928;2023-04-03T08:48:20;4.10;;;2.20;;
66946;SDS011;53853;51.982;5.928;2023-04-03T08:50:56;3.88;;;1.70;;
66946;SDS011;53853;51.982;5.928;2023-04-03T08:53:30;4.30;;;1.33;;
66946;SDS011;53853;51.982;5.928;2023-04-03T08:56:04;6.80;;;2.22;;
66946;SDS011;53853;51.982;5.928;2023-04-03T08:58:40;3.08;;;1.50;;
66946;SDS011;53853;51.982;5.928;2023-04-03T09:01:16;3.50;;;1.85;;
66946;SDS011;53853;51.982;5.928;2023-04-03T09:03:48;3.10;;;1.35;;
66946;SDS011;53853;51.982;5.928;2023-04-03T09:06:21;3.25;;;1.40;;
66946;SDS011;53853;51.982;5.928;2023-04-03T09:08:58;3.88;;;1.85;;
66946;SDS011;53853;51.982;5.928;2023-04-03T09:11:38;3.15;;;1.33;;
66946;SDS011;53853;51.982;5.928;2023-04-03T09:14:16;3.70;;;1.30;;
66946;SDS011;53853;51.982;5.928;2023-04-03T09:16:52;3.30;;;1.50;;
66946;SDS011;53853;51.982;5.928;2023-04-03T09:19:28;3.58;;;1.55;;
66946;SDS011;53853;51.982;5.928;2023-04-03T09:22:11;2.20;;;0.93;;
66946;SDS011;53853;51.982;5.928;2023-04-03T09:24:46;4.30;;;1.77;;
66946;SDS011;53853;51.982;5.928;2023-04-03T09:27:18;3.00;;;1.23;;
66946;SDS011;53853;51.982;5.928;2023-04-03T09:29:48;1.80;;;1.02;;
66946;SDS011;53853;51.982;5.928;2023-04-03T09:32:26;1.95;;;1.10;;
66946;SDS011;53853;51.982;5.928;2023-04-03T09:34:59;2.92;;;1.17;;
66946;SDS011;53853;51.982;5.928;2023-04-03T09:37:39;4.00;;;1.95;;
66946;SDS011;53853;51.982;5.928;2023-04-03T09:40:28;2.65;;;0.98;;
66946;SDS011;53853;51.982;5.928;2023-04-03T09:43:00;1.70;;;1.08;;
66946;SDS011;53853;51.982;5.928;2023-04-03T09:45:48;2.15;;;1.13;;
66946;SDS011;53853;51.982;5.928;2023-04-03T09:48:19;2.38;;;1.17;;
66946;SDS011;53853;51.982;5.928;2023-04-03T09:50:55;2.83;;;1.30;;
66946;SDS011;53853;51.982;5.928;2023-04-03T09:53:31;1.52;;;0.90;;
66946;SDS011;53853;51.982;5.928;2023-04-03T09:56:03;2.67;;;1.30;;
66946;SDS011;53853;51.982;5.928;2023-04-03T09:58:48;2.85;;;1.25;;
66946;SDS011;53853;51.982;5.928;2023-04-03T10:01:26;4.43;;;1.50;;
66946;SDS011;53853;51.982;5.928;2023-04-03T10:04:05;3.47;;;1.63;;
66946;SDS011;53853;51.982;5.928;2023-04-03T10:06:37;3.95;;;1.50;;
66946;SDS011;53853;51.982;5.928;2023-04-03T10:09:18;2.03;;;1.15;;
66946;SDS011;53853;51.982;5.928;2023-04-03T10:12:00;4.00;;;1.45;;
66946;SDS011;53853;51.982;5.928;2023-04-03T10:14:33;2.88;;;1.27;;
66946;SDS011;53853;51.982;5.928;2023-04-03T10:17:15;8.82;;;1.73;;
66946;SDS011;53853;51.982;5.928;2023-04-03T10:19:53;3.72;;;1.60;;
66946;SDS011;53853;51.982;5.928;2023-04-03T10:22:30;3.05;;;1.42;;
66946;SDS011;53853;51.982;5.928;2023-04-03T10:25:15;3.97;;;1.50;;
66946;SDS011;53853;51.982;5.928;2023-04-03T10:27:53;2.75;;;1.42;;
66946;SDS011;53853;51.982;5.928;2023-04-03T10:30:40;2.97;;;1.50;;
66946;SDS011;53853;51.982;5.928;2023-04-03T10:33:19;3.35;;;1.55;;
66946;SDS011;53853;51.982;5.928;2023-04-03T10:36:11;2.13;;;1.20;;
66946;SDS011;53853;51.982;5.928;2023-04-03T10:38:51;2.78;;;1.65;;
66946;SDS011;53853;51.982;5.928;2023-04-03T10:41:32;3.20;;;1.67;;
66946;SDS011;53853;51.982;5.928;2023-04-03T10:44:15;2.90;;;1.80;;
66946;SDS011;53853;51.982;5.928;2023-04-03T10:46:53;3.13;;;1.80;;
66946;SDS011;53853;51.982;5.928;2023-04-03T10:49:33;3.72;;;1.67;;
66946;SDS011;53853;51.982;5.928;2023-04-03T10:52:14;3.80;;;1.77;;
66946;SDS011;53853;51.982;5.928;2023-04-03T10:54:54;4.63;;;1.42;;
66946;SDS011;53853;51.982;5.928;2023-04-03T10:57:33;1.75;;;1.10;;
66946;SDS011;53853;51.982;5.928;2023-04-03T11:00:04;2.55;;;1.20;;
66946;SDS011;53853;51.982;5.928;2023-04-03T11:02:45;3.13;;;1.50;;
66946;SDS011;53853;51.982;5.928;2023-04-03T11:05:29;4.55;;;1.60;;
66946;SDS011;53853;51.982;5.928;2023-04-03T11:08:05;2.50;;;1.77;;
66946;SDS011;53853;51.982;5.928;2023-04-03T11:10:41;2.25;;;1.50;;
66946;SDS011;53853;51.982;5.928;2023-04-03T11:13:17;3.35;;;1.60;;
66946;SDS011;53853;51.982;5.928;2023-04-03T11:15:51;2.50;;;1.42;;
66946;SDS011;53853;51.982;5.928;2023-04-03T11:18:25;2.30;;;1.20;;
66946;SDS011;53853;51.982;5.928;2023-04-03T11:21:00;4.22;;;1.50;;
66946;SDS011;53853;51.982;5.928;2023-04-03T11:26:07;3.30;;;1.35;;
66946;SDS011;53853;51.982;5.928;2023-04-03T11:28:43;3.88;;;1.95;;
66946;SDS011;53853;51.982;5.928;2023-04-03T11:31:22;4.70;;;1.75;;
66946;SDS011;53853;51.982;5.928;2023-04-03T11:34:09;3.13;;;1.47;;
66946;SDS011;53853;51.982;5.928;2023-04-03T11:36:51;4.70;;;1.50;;
66946;SDS011;53853;51.982;5.928;2023-04-03T11:39:26;5.15;;;1.45;;
66946;SDS011;53853;51.982;5.928;2023-04-03T11:42:12;2.40;;;1.60;;
66946;SDS011;53853;51.982;5.928;2023-04-03T11:44:47;3.20;;;1.90;;
66946;SDS011;53853;51.982;5.928;2023-04-03T11:53:01;2.97;;;1.35;;
66946;SDS011;53853;51.982;5.928;2023-04-03T11:55:54;2.80;;;1.23;;
66946;SDS011;53853;51.982;5.928;2023-04-03T11:58:26;3.65;;;1.40;;
66946;SDS011;53853;51.982;5.928;2023-04-03T12:01:04;3.58;;;1.60;;
66946;SDS011;53853;51.982;5.928;2023-04-03T12:12:57;5.53;;;2.30;;
66946;SDS011;53853;51.982;5.928;2023-04-03T12:24:36;2.88;;;1.50;;
66946;SDS011;53853;51.982;5.928;2023-04-03T12:27:24;5.28;;;2.30;;
66946;SDS011;53853;51.982;5.928;2023-04-03T12:36:01;3.92;;;2.15;;
66946;SDS011;53853;51.982;5.928;2023-04-03T12:38:40;3.58;;;1.73;;
66946;SDS011;53853;51.982;5.928;2023-04-03T12:41:26;2.63;;;1.73;;
66946;SDS011;53853;51.982;5.928;2023-04-03T12:44:18;5.35;;;2.13;;
66946;SDS011;53853;51.982;5.928;2023-04-03T12:47:13;2.42;;;1.65;;
66946;SDS011;53853;51.982;5.928;2023-04-03T12:49:52;3.10;;;1.67;;
66946;SDS011;53853;51.982;5.928;2023-04-03T12:52:33;2.53;;;1.27;;
66946;SDS011;53853;51.982;5.928;2023-04-03T12:55:14;2.58;;;1.60;;
66946;SDS011;53853;51.982;5.928;2023-04-03T12:57:44;2.72;;;1.42;;
66946;SDS011;53853;51.982;5.928;2023-04-03T13:00:22;4.65;;;1.50;;
66946;SDS011;53853;51.982;5.928;2023-04-03T13:02:58;4.72;;;2.05;;
66946;SDS011;53853;51.982;5.928;2023-04-03T13:05:29;7.53;;;1.95;;
66946;SDS011;53853;51.982;5.928;2023-04-03T13:08:04;2.92;;;1.60;;
66946;SDS011;53853;51.982;5.928;2023-04-03T13:10:43;3.05;;;1.80;;
66946;SDS011;53853;51.982;5.928;2023-04-03T13:13:21;3.38;;;1.58;;
66946;SDS011;53853;51.982;5.928;2023-04-03T13:15:52;5.05;;;1.60;;
66946;SDS011;53853;51.982;5.928;2023-04-03T13:18:26;2.97;;;1.60;;
66946;SDS011;53853;51.982;5.928;2023-04-03T13:21:02;3.42;;;1.60;;
66946;SDS011;53853;51.982;5.928;2023-04-03T13:23:38;4.57;;;1.40;;
66946;SDS011;53853;51.982;5.928;2023-04-03T13:26:11;4.80;;;1.88;;
66946;SDS011;53853;51.982;5.928;2023-04-03T13:28:44;4.00;;;1.98;;
66946;SDS011;53853;51.982;5.928;2023-04-03T13:31:18;3.35;;;1.67;;
66946;SDS011;53853;51.982;5.928;2023-04-03T13:33:53;4.05;;;1.30;;
66946;SDS011;53853;51.982;5.928;2023-04-03T13:36:27;4.45;;;1.88;;
66946;SDS011;53853;51.982;5.928;2023-04-03T13:39:04;4.60;;;1.70;;
66946;SDS011;53853;51.982;5.928;2023-04-03T13:41:36;4.18;;;1.73;;
66946;SDS011;53853;51.982;5.928;2023-04-03T13:47:15;4.75;;;1.80;;
66946;SDS011;53853;51.982;5.928;2023-04-03T13:49:58;4.82;;;1.63;;
66946;SDS011;53853;51.982;5.928;2023-04-03T13:52:31;3.53;;;1.77;;
66946;SDS011;53853;51.982;5.928;2023-04-03T13:57:54;4.53;;;1.40;;
66946;SDS011;53853;51.982;5.928;2023-04-03T14:00:31;3.50;;;1.73;;
66946;SDS011;53853;51.982;5.928;2023-04-03T14:03:12;3.33;;;2.10;;
66946;SDS011;53853;51.982;5.928;2023-04-03T14:05:42;3.45;;;1.85;;
66946;SDS011;53853;51.982;5.928;2023-04-03T14:08:12;4.13;;;2.33;;
66946;SDS011;53853;51.982;5.928;2023-04-03T14:10:46;3.40;;;2.33;;
66946;SDS011;53853;51.982;5.928;2023-04-03T14:13:17;4.10;;;2.13;;
66946;SDS011;53853;51.982;5.928;2023-04-03T14:15:48;4.90;;;1.77;;
66946;SDS011;53853;51.982;5.928;2023-04-03T14:18:19;3.30;;;1.70;;
66946;SDS011;53853;51.982;5.928;2023-04-03T14:20:49;4.75;;;1.80;;
66946;SDS011;53853;51.982;5.928;2023-04-03T14:23:19;5.43;;;1.70;;
66946;SDS011;53853;51.982;5.928;2023-04-03T14:25:52;2.42;;;1.52;;
66946;SDS011;53853;51.982;5.928;2023-04-03T14:28:22;3.15;;;1.48;;
66946;SDS011;53853;51.982;5.928;2023-04-03T14:30:52;3.60;;;1.60;;
66946;SDS011;53853;51.982;5.928;2023-04-03T14:33:22;3.38;;;1.70;;
66946;SDS011;53853;51.982;5.928;2023-04-03T14:35:53;3.85;;;1.80;;
66946;SDS011;53853;51.982;5.928;2023-04-03T14:38:24;4.63;;;1.73;;
66946;SDS011;53853;51.982;5.928;2023-04-03T14:40:58;4.72;;;1.90;;
66946;SDS011;53853;51.982;5.928;2023-04-03T14:43:28;4.55;;;1.95;;
66946;SDS011;53853;51.982;5.928;2023-04-03T14:45:58;4.10;;;1.88;;
66946;SDS011;53853;51.982;5.928;2023-04-03T14:48:28;6.57;;;3.08;;
66946;SDS011;53853;51.982;5.928;2023-04-03T14:50:59;5.63;;;2.30;;
66946;SDS011;53853;51.982;5.928;2023-04-03T14:53:29;3.90;;;2.08;;
66946;SDS011;53853;51.982;5.928;2023-04-03T14:56:02;2.47;;;1.70;;
66946;SDS011;53853;51.982;5.928;2023-04-03T14:58:39;5.55;;;2.22;;
66946;SDS011;53853;51.982;5.928;2023-04-03T15:01:09;4.55;;;1.88;;
66946;SDS011;53853;51.982;5.928;2023-04-03T15:03:40;4.75;;;1.77;;
66946;SDS011;53853;51.982;5.928;2023-04-03T15:06:10;4.25;;;2.45;;
66946;SDS011;53853;51.982;5.928;2023-04-03T15:08:42;7.10;;;2.30;;
66946;SDS011;53853;51.982;5.928;2023-04-03T15:11:15;4.15;;;1.80;;
66946;SDS011;53853;51.982;5.928;2023-04-03T15:13:45;5.40;;;2.73;;
66946;SDS011;53853;51.982;5.928;2023-04-03T15:16:16;6.40;;;2.25;;
66946;SDS011;53853;51.982;5.928;2023-04-03T15:18:47;5.78;;;1.70;;
66946;SDS011;53853;51.982;5.928;2023-04-03T15:21:17;4.43;;;2.35;;
66946;SDS011;53853;51.982;5.928;2023-04-03T15:23:47;3.58;;;1.85;;
66946;SDS011;53853;51.982;5.928;2023-04-03T15:26:20;5.30;;;2.00;;
66946;SDS011;53853;51.982;5.928;2023-04-03T15:28:50;5.38;;;2.05;;
66946;SDS011;53853;51.982;5.928;2023-04-03T15:31:20;4.72;;;2.15;;
66946;SDS011;53853;51.982;5.928;2023-04-03T15:33:50;4.05;;;2.00;;
66946;SDS011;53853;51.982;5.928;2023-04-03T15:36:20;3.55;;;2.35;;
66946;SDS011;53853;51.982;5.928;2023-04-03T15:38:50;3.13;;;2.08;;
66946;SDS011;53853;51.982;5.928;2023-04-03T15:41:22;13.88;;;2.50;;
66946;SDS011;53853;51.982;5.928;2023-04-03T15:43:52;4.10;;;1.95;;
66946;SDS011;53853;51.982;5.928;2023-04-03T15:46:22;4.22;;;2.22;;
66946;SDS011;53853;51.982;5.928;2023-04-03T15:48:52;4.78;;;2.33;;
66946;SDS011;53853;51.982;5.928;2023-04-03T15:51:22;5.93;;;1.95;;
66946;SDS011;53853;51.982;5.928;2023-04-03T15:53:52;4.28;;;1.63;;
66946;SDS011;53853;51.982;5.928;2023-04-03T15:56:24;5.35;;;1.60;;
66946;SDS011;53853;51.982;5.928;2023-04-03T15:58:54;4.65;;;1.88;;
66946;SDS011;53853;51.982;5.928;2023-04-03T16:01:25;5.82;;;1.85;;
66946;SDS011;53853;51.982;5.928;2023-04-03T16:03:55;3.72;;;1.70;;
66946;SDS011;53853;51.982;5.928;2023-04-03T16:06:25;4.60;;;2.22;;
66946;SDS011;53853;51.982;5.928;2023-04-03T16:08:57;5.47;;;2.10;;